sensor_id;sensor_type;location;lat;lon;timestamp;P1;durP1;ratioP1;P2;durP2;ratioP2
13552;SDS011;6847;48.830;9.116;2023-08-12T02:16:37;0.10;;;0.10;;
13552;SDS011;6847;48.830;9.116;2023-08-12T02:19:24;0.10;;;0.10;;
13552;SDS011;6847;48.830;9.116;2023-08-12T02:22:10;0.10;;;0.10;;
13552;SDS011;6847;48.830;9.116;2023-08-12T02:24:57;0.10;;;0.10;;
13552;SDS011;6847;48.830;9.116;2023-08-12T02:27:44;0.20;;;0.20;;
13552;SDS011;6847;48.830;9.116;2023-08-12T02:30:34;0.10;;;0.10;;
13552;SDS011;6847;48.830;9.116;2023-08-12T02:33:21;0.10;;;0.10;;
13552;SDS011;6847;48.830;9.116;2023-08-12T02:36:07;0.10;;;0.10;;
13552;SDS011;6847;48.830;9.116;2023-08-12T02:38:53;0.10;;;0.10;;
13552;SDS011;6847;48.830;9.116;2023-08-12T02:41:38;0.10;;;0.10;;
13552;SDS011;6847;48.830;9.116;2023-08-12T02:44:23;0.10;;;0.10;;
13552;SDS011;6847;48.830;9.116;2023-08-12T02:47:12;0.10;;;0.10;;
13552;SDS011;6847;48.830;9.116;2023-08-12T02:50:02;0.10;;;0.10;;
13552;SDS011;6847;48.830;9.116;2023-08-12T02:52:51;0.10;;;0.10;;
13552;SDS011;6847;48.830;9.116;2023-08-12T02:55:37;0.10;;;0.10;;
13552;SDS011;6847;48.830;9.116;2023-08-12T02:58:22;0.10;;;0.10;;
13552;SDS011;6847;48.830;9.116;2023-08-12T03:01:08;0.10;;;0.10;;
13552;SDS011;6847;48.830;9.116;2023-08-12T03:03:55;0.10;;;0.10;;
13552;SDS011;6847;48.830;9.116;2023-08-12T03:06:46;0.10;;;0.10;;
13552;SDS011;6847;48.830;9.116;2023-08-12T03:09:32;0.10;;;0.10;;
13552;SDS011;6847;48.830;9.116;2023-08-12T03:12:19;0.10;;;0.10;;
13552;SDS011;6847;48.830;9.116;2023-08-12T03:15:05;0.10;;;0.10;;
13552;SDS011;6847;48.830;9.116;2023-08-12T03:17:52;0.10;;;0.10;;
13552;SDS011;6847;48.830;9.116;2023-08-12T03:20:38;0.10;;;0.10;;
13552;SDS011;6847;48.830;9.116;2023-08-12T03:23:29;0.10;;;0.10;;
13552;SDS011;6847;48.830;9.116;2023-08-12T03:26:14;0.10;;;0.10;;
13552;SDS011;6847;48.830;9.116;2023-08-12T03:28:59;0.10;;;0.10;;
13552;SDS011;6847;48.830;9.116;2023-08-12T03:31:46;0.10;;;0.10;;
13552;SDS011;6847;48.830;9.116;2023-08-12T03:34:32;0.10;;;0.10;;
13552;SDS011;6847;48.830;9.116;2023-08-12T03:37:17;0.10;;;0.10;;
13552;SDS011;6847;48.830;9.116;2023-08-12T03:40:07;0.20;;;0.20;;
13552;SDS011;6847;48.830;9.116;2023-08-12T03:42:53;0.10;;;0.10;;
13552;SDS011;6847;48.830;9.116;2023-08-12T03:45:40;0.10;;;0.10;;
13552;SDS011;6847;48.830;9.116;2023-08-12T03:48:30;0.10;;;0.10;;
13552;SDS011;6847;48.830;9.116;2023-08-12T03:51:17;0.20;;;0.20;;
13552;SDS011;6847;48.830;9.116;2023-08-12T03:54:12;0.10;;;0.10;;
13552;SDS011;6847;48.830;9.116;2023-08-12T03:56:59;0.10;;;0.10;;
13552;SDS011;6847;48.830;9.116;2023-08-12T03:59:47;0.10;;;0.10;;
13552;SDS011;6847;48.830;9.116;2023-08-12T04:02:37;0.20;;;0.20;;
13552;SDS011;6847;48.830;9.116;2023-08-12T04:05:26;0.10;;;0.10;;
13552;SDS011;6847;48.830;9.116;2023-08-12T04:08:12;0.10;;;0.10;;
13552;SDS011;6847;48.830;9.116;2023-08-12T04:10:59;0.10;;;0.10;;
13552;SDS011;6847;48.830;9.116;2023-08-12T04:13:50;0.10;;;0.10;;
13552;SDS011;6847;48.830;9.116;2023-08-12T04:16:38;0.10;;;0.10;;
13552;SDS011;6847;48.830;9.116;2023-08-12T04:19:23;0.10;;;0.10;;
13552;SDS011;6847;48.830;9.116;2023-08-12T04:22:11;0.10;;;0.10;;
13552;SDS011;6847;48.830;9.116;2023-08-12T04:24:59;0.10;;;0.10;;
13552;SDS011;6847;48.830;9.116;2023-08-12T04:27:48;0.10;;;0.10;;
13552;SDS011;6847;48.830;9.116;2023-08-12T04:30:40;0.10;;;0.10;;
13552;SDS011;6847;48.830;9.116;2023-08-12T04:33:34;0.10;;;0.10;;
13552;SDS011;6847;48.830;9.116;2023-08-12T04:36:22;0.10;;;0.10;;
13552;SDS011;6847;48.830;9.116;2023-08-12T04:39:18;0.10;;;0.10;;
13552;SDS011;6847;48.830;9.116;2023-08-12T04:42:07;0.10;;;0.10;;
13552;SDS011;6847;48.830;9.116;2023-08-12T04:44:57;0.10;;;0.10;;
13552;SDS011;6847;48.830;9.116;2023-08-12T04:47:48;0.10;;;0.10;;
13552;SDS011;6847;48.830;9.116;2023-08-12T04:50:34;0.10;;;0.10;;
13552;SDS011;6847;48.830;9.116;2023-08-12T04:53:19;0.10;;;0.10;;
13552;SDS011;6847;48.830;9.116;2023-08-12T04:56:05;0.10;;;0.10;;
13552;SDS011;6847;48.830;9.116;2023-08-12T04:58:55;0.10;;;0.10;;
13552;SDS011;6847;48.830;9.116;2023-08-12T05:01:45;0.10;;;0.10;;
13552;SDS011;6847;48.830;9.116;2023-08-12T05:04:32;0.10;;;0.10;;
13552;SDS011;6847;48.830;9.116;2023-08-12T05:07:19;0.10;;;0.10;;
13552;SDS011;6847;48.830;9.116;2023-08-12T05:10:08;0.10;;;0.10;;
13552;SDS011;6847;48.830;9.116;2023-08-12T05:12:57;0.10;;;0.10;;
13552;SDS011;6847;48.830;9.116;2023-08-12T05:15:44;0.10;;;0.10;;
13552;SDS011;6847;48.830;9.116;2023-08-12T05:18:32;0.10;;;0.10;;
13552;SDS011;6847;48.830;9.116;2023-08-12T05:21:26;0.10;;;0.10;;
13552;SDS011;6847;48.830;9.116;2023-08-12T05:24:19;0.10;;;0.10;;
13552;SDS011;6847;48.830;9.116;2023-08-12T05:27:18;0.10;;;0.10;;
13552;SDS011;6847;48.830;9.116;2023-08-12T05:30:06;0.10;;;0.10;;
13552;SDS011;6847;48.830;9.116;2023-08-12T05:32:55;0.10;;;0.10;;
13552;SDS011;6847;48.830;9.116;2023-08-12T05:35:41;0.10;;;0.10;;
13552;SDS011;6847;48.830;9.116;2023-08-12T05:38:30;0.10;;;0.10;;
13552;SDS011;6847;48.830;9.116;2023-08-12T05:41:17;0.10;;;0.10;;
13552;SDS011;6847;48.830;9.116;2023-08-12T05:44:03;0.10;;;0.10;;
13552;SDS011;6847;48.830;9.116;2023-08-12T05:46:54;0.10;;;0.10;;
13552;SDS011;6847;48.830;9.116;2023-08-12T05:49:45;0.10;;;0.10;;
13552;SDS011;6847;48.830;9.116;2023-08-12T05:52:32;0.10;;;0.10;;
13552;SDS011;6847;48.830;9.116;2023-08-12T05:55:21;0.10;;;0.10;;
13552;SDS011;6847;48.830;9.116;2023-08-12T05:58:12;0.10;;;0.10;;
13552;SDS011;6847;48.830;9.116;2023-08-12T06:00:59;0.10;;;0.10;;
13552;SDS011;6847;48.830;9.116;2023-08-12T06:03:47;0.10;;;0.10;;
13552;SDS011;6847;48.830;9.116;2023-08-12T06:06:41;0.10;;;0.10;;
13552;SDS011;6847;48.830;9.116;2023-08-12T06:09:30;0.10;;;0.10;;
13552;SDS011;6847;48.830;9.116;2023-08-12T06:12:21;0.10;;;0.10;;
13552;SDS011;6847;48.830;9.116;2023-08-12T06:15:07;0.20;;;0.20;;
13552;SDS011;6847;48.830;9.116;2023-08-12T06:17:54;0.10;;;0.10;;
13552;SDS011;6847;48.830;9.116;2023-08-12T06:20:45;0.10;;;0.10;;
13552;SDS011;6847;48.830;9.116;2023-08-12T06:23:41;0.10;;;0.10;;
13552;SDS011;6847;48.830;9.116;2023-08-12T06:26:29;0.10;;;0.10;;
13552;SDS011;6847;48.830;9.116;2023-08-12T06:29:46;0.10;;;0.10;;
13552;SDS011;6847;48.830;9.116;2023-08-12T06:32:38;0.10;;;0.10;;
13552;SDS011;6847;48.830;9.116;2023-08-12T06:35:26;0.10;;;0.10;;
13552;SDS011;6847;48.830;9.116;2023-08-12T06:38:11;0.13;;;0.13;;
13552;SDS011;6847;48.830;9.116;2023-08-12T06:40:57;0.10;;;0.10;;
13552;SDS011;6847;48.830;9.116;2023-08-12T06:43:44;0.10;;;0.10;;
13552;SDS011;6847;48.830;9.116;2023-08-12T06:46:37;0.10;;;0.10;;
13552;SDS011;6847;48.830;9.116;2023-08-12T06:49:25;0.10;;;0.10;;
13552;SDS011;6847;48.830;9.116;2023-08-12T06:52:10;0.10;;;0.10;;
13552;SDS011;6847;48.830;9.116;2023-08-12T06:54:57;0.10;;;0.10;;
13552;SDS011;6847;48.830;9.116;2023-08-12T06:57:42;0.10;;;0.10;;
13552;SDS011;6847;48.830;9.116;2023-08-12T07:00:30;0.15;;;0.15;;
13552;SDS011;6847;48.830;9.116;2023-08-12T07:03:17;0.10;;;0.10;;
13552;SDS011;6847;48.830;9.116;2023-08-12T07:09:10;0.20;;;0.20;;
13552;SDS011;6847;48.830;9.116;2023-08-12T07:11:58;0.10;;;0.10;;
13552;SDS011;6847;48.830;9.116;2023-08-12T07:14:45;0.10;;;0.10;;
13552;SDS011;6847;48.830;9.116;2023-08-12T07:17:35;0.10;;;0.10;;
13552;SDS011;6847;48.830;9.116;2023-08-12T07:20:22;0.15;;;0.15;;
13552;SDS011;6847;48.830;9.116;2023-08-12T07:23:12;0.20;;;0.20;;
13552;SDS011;6847;48.830;9.116;2023-08-12T07:25:59;0.10;;;0.10;;
13552;SDS011;6847;48.830;9.116;2023-08-12T07:28:45;0.10;;;0.10;;
13552;SDS011;6847;48.830;9.116;2023-08-12T07:31:30;0.10;;;0.10;;
13552;SDS011;6847;48.830;9.116;2023-08-12T07:34:18;0.10;;;0.10;;
13552;SDS011;6847;48.830;9.116;2023-08-12T07:37:17;0.10;;;0.10;;
13552;SDS011;6847;48.830;9.116;2023-08-12T07:40:09;0.10;;;0.10;;
13552;SDS011;6847;48.830;9.116;2023-08-12T07:43:03;0.10;;;0.10;;
13552;SDS011;6847;48.830;9.116;2023-08-12T07:46:05;0.20;;;0.20;;
13552;SDS011;6847;48.830;9.116;2023-08-12T07:48:51;0.10;;;0.10;;
13552;SDS011;6847;48.830;9.116;2023-08-12T07:51:39;0.10;;;0.10;;
13552;SDS011;6847;48.830;9.116;2023-08-12T07:54:27;0.10;;;0.10;;
13552;SDS011;6847;48.830;9.116;2023-08-12T07:57:14;0.10;;;0.10;;
13552;SDS011;6847;48.830;9.116;2023-08-12T08:00:10;0.20;;;0.20;;
13552;SDS011;6847;48.830;9.116;2023-08-12T08:02:58;0.10;;;0.10;;
13552;SDS011;6847;48.830;9.116;2023-08-12T08:05:44;0.10;;;0.10;;
13552;SDS011;6847;48.830;9.116;2023-08-12T08:08:30;0.10;;;0.10;;
13552;SDS011;6847;48.830;9.116;2023-08-12T08:11:20;0.10;;;0.10;;
13552;SDS011;6847;48.830;9.116;2023-08-12T08:14:08;0.20;;;0.20;;
13552;SDS011;6847;48.830;9.116;2023-08-12T08:16:57;0.20;;;0.20;;
13552;SDS011;6847;48.830;9.116;2023-08-12T08:19:48;0.10;;;0.10;;
13552;SDS011;6847;48.830;9.116;2023-08-12T08:22:34;0.20;;;0.20;;
13552;SDS011;6847;48.830;9.116;2023-08-12T08:25:20;0.20;;;0.20;;
13552;SDS011;6847;48.830;9.116;2023-08-12T08:28:07;0.20;;;0.20;;
13552;SDS011;6847;48.830;9.116;2023-08-12T08:30:52;0.20;;;0.20;;
13552;SDS011;6847;48.830;9.116;2023-08-12T08:33:43;0.20;;;0.20;;
13552;SDS011;6847;48.830;9.116;2023-08-12T08:36:31;0.20;;;0.20;;
13552;SDS011;6847;48.830;9.116;2023-08-12T08:39:16;0.20;;;0.20;;
13552;SDS011;6847;48.830;9.116;2023-08-12T08:42:01;0.20;;;0.20;;
13552;SDS011;6847;48.830;9.116;2023-08-12T08:44:52;0.30;;;0.30;;
13552;SDS011;6847;48.830;9.116;2023-08-12T08:47:38;0.25;;;0.25;;
13552;SDS011;6847;48.830;9.116;2023-08-12T08:50:25;0.30;;;0.30;;
13552;SDS011;6847;48.830;9.116;2023-08-12T08:53:14;0.20;;;0.20;;
13552;SDS011;6847;48.830;9.116;2023-08-12T08:56:02;0.30;;;0.30;;
13552;SDS011;6847;48.830;9.116;2023-08-12T08:58:53;0.30;;;0.30;;
13552;SDS011;6847;48.830;9.116;2023-08-12T09:01:40;0.30;;;0.30;;
13552;SDS011;6847;48.830;9.116;2023-08-12T09:04:33;0.30;;;0.30;;
13552;SDS011;6847;48.830;9.116;2023-08-12T09:07:20;0.40;;;0.40;;
13552;SDS011;6847;48.830;9.116;2023-08-12T09:10:10;0.40;;;0.40;;
13552;SDS011;6847;48.830;9.116;2023-08-12T09:12:57;0.40;;;0.40;;
13552;SDS011;6847;48.830;9.116;2023-08-12T09:15:44;0.30;;;0.30;;
13552;SDS011;6847;48.830;9.116;2023-08-12T09:18:33;0.30;;;0.30;;
13552;SDS011;6847;48.830;9.116;2023-08-12T09:21:20;0.30;;;0.30;;
13552;SDS011;6847;48.830;9.116;2023-08-12T09:24:07;0.40;;;0.40;;
13552;SDS011;6847;48.830;9.116;2023-08-12T09:26:55;0.40;;;0.40;;
13552;SDS011;6847;48.830;9.116;2023-08-12T09:29:47;0.50;;;0.50;;
13552;SDS011;6847;48.830;9.116;2023-08-12T09:32:35;0.47;;;0.47;;
13552;SDS011;6847;48.830;9.116;2023-08-12T09:35:33;0.30;;;0.30;;
13552;SDS011;6847;48.830;9.116;2023-08-12T09:38:20;0.65;;;0.65;;
13552;SDS011;6847;48.830;9.116;2023-08-12T09:41:07;0.40;;;0.40;;
13552;SDS011;6847;48.830;9.116;2023-08-12T09:44:06;0.45;;;0.45;;
13552;SDS011;6847;48.830;9.116;2023-08-12T09:46:55;0.50;;;0.50;;
13552;SDS011;6847;48.830;9.116;2023-08-12T09:49:44;0.40;;;0.40;;
13552;SDS011;6847;48.830;9.116;2023-08-12T09:52:35;0.30;;;0.30;;
13552;SDS011;6847;48.830;9.116;2023-08-12T09:55:29;0.40;;;0.40;;
13552;SDS011;6847;48.830;9.116;2023-08-12T09:58:21;0.30;;;0.30;;
13552;SDS011;6847;48.830;9.116;2023-08-12T10:01:15;0.30;;;0.30;;
13552;SDS011;6847;48.830;9.116;2023-08-12T10:04:08;0.30;;;0.30;;
13552;SDS011;6847;48.830;9.116;2023-08-12T10:06:56;0.20;;;0.20;;
13552;SDS011;6847;48.830;9.116;2023-08-12T10:09:53;0.30;;;0.30;;
13552;SDS011;6847;48.830;9.116;2023-08-12T10:12:41;0.32;;;0.32;;
13552;SDS011;6847;48.830;9.116;2023-08-12T10:15:27;0.20;;;0.20;;
13552;SDS011;6847;48.830;9.116;2023-08-12T10:18:15;0.30;;;0.30;;
13552;SDS011;6847;48.830;9.116;2023-08-12T10:21:03;0.28;;;0.28;;
13552;SDS011;6847;48.830;9.116;2023-08-12T10:23:50;0.20;;;0.20;;
13552;SDS011;6847;48.830;9.116;2023-08-12T10:26:49;0.20;;;0.20;;
13552;SDS011;6847;48.830;9.116;2023-08-12T10:29:35;0.20;;;0.20;;
13552;SDS011;6847;48.830;9.116;2023-08-12T10:32:21;0.20;;;0.20;;
13552;SDS011;6847;48.830;9.116;2023-08-12T10:35:16;0.20;;;0.20;;
13552;SDS011;6847;48.830;9.116;2023-08-12T10:38:05;0.20;;;0.20;;
13552;SDS011;6847;48.830;9.116;2023-08-12T10:44:06;0.20;;;0.20;;
13552;SDS011;6847;48.830;9.116;2023-08-12T10:46:53;0.20;;;0.20;;
13552;SDS011;6847;48.830;9.116;2023-08-12T10:49:42;0.20;;;0.20;;
13552;SDS011;6847;48.830;9.116;2023-08-12T10:52:32;0.20;;;0.20;;
13552;SDS011;6847;48.830;9.116;2023-08-12T10:55:25;0.30;;;0.30;;
13552;SDS011;6847;48.830;9.116;2023-08-12T10:58:14;0.20;;;0.20;;
13552;SDS011;6847;48.830;9.116;2023-08-12T11:01:17;0.20;;;0.20;;
13552;SDS011;6847;48.830;9.116;2023-08-12T11:04:18;0.30;;;0.30;;
13552;SDS011;6847;48.830;9.116;2023-08-12T11:07:14;0.20;;;0.20;;
13552;SDS011;6847;48.830;9.116;2023-08-12T11:10:04;0.20;;;0.20;;
13552;SDS011;6847;48.830;9.116;2023-08-12T11:12:57;0.20;;;0.20;;
13552;SDS011;6847;48.830;9.116;2023-08-12T11:15:53;0.52;;;0.52;;
13552;SDS011;6847;48.830;9.116;2023-08-12T11:18:53;0.20;;;0.20;;
13552;SDS011;6847;48.830;9.116;2023-08-12T11:21:53;0.28;;;0.28;;
13552;SDS011;6847;48.830;9.116;2023-08-12T11:24:40;0.20;;;0.20;;
13552;SDS011;6847;48.830;9.116;2023-08-12T11:27:36;0.22;;;0.22;;
13552;SDS011;6847;48.830;9.116;2023-08-12T11:30:26;0.30;;;0.30;;
13552;SDS011;6847;48.830;9.116;2023-08-12T11:33:12;0.25;;;0.25;;
13552;SDS011;6847;48.830;9.116;2023-08-12T11:36:00;0.20;;;0.20;;
13552;SDS011;6847;48.830;9.116;2023-08-12T11:38:46;0.45;;;0.45;;
13552;SDS011;6847;48.830;9.116;2023-08-12T11:41:35;0.20;;;0.20;;
13552;SDS011;6847;48.830;9.116;2023-08-12T11:44:21;1.00;;;0.40;;
13552;SDS011;6847;48.830;9.116;2023-08-12T11:47:07;0.20;;;0.20;;
13552;SDS011;6847;48.830;9.116;2023-08-12T11:49:55;0.70;;;0.70;;
13552;SDS011;6847;48.830;9.116;2023-08-12T11:52:43;0.30;;;0.30;;
13552;SDS011;6847;48.830;9.116;2023-08-12T11:55:32;0.20;;;0.20;;
13552;SDS011;6847;48.830;9.116;2023-08-12T11:58:19;0.40;;;0.40;;
13552;SDS011;6847;48.830;9.116;2023-08-12T12:01:09;0.20;;;0.20;;
13552;SDS011;6847;48.830;9.116;2023-08-12T12:04:02;0.20;;;0.20;;
13552;SDS011;6847;48.830;9.116;2023-08-12T12:06:57;0.20;;;0.20;;
13552;SDS011;6847;48.830;9.116;2023-08-12T12:10:02;0.10;;;0.10;;
13552;SDS011;6847;48.830;9.116;2023-08-12T12:12:49;0.20;;;0.20;;
13552;SDS011;6847;48.830;9.116;2023-08-12T12:15:37;0.20;;;0.20;;
13552;SDS011;6847;48.830;9.116;2023-08-12T12:18:25;0.20;;;0.20;;
13552;SDS011;6847;48.830;9.116;2023-08-12T12:21:10;0.10;;;0.10;;
13552;SDS011;6847;48.830;9.116;2023-08-12T12:23:59;0.20;;;0.20;;
13552;SDS011;6847;48.830;9.116;2023-08-12T12:26:49;0.20;;;0.20;;
13552;SDS011;6847;48.830;9.116;2023-08-12T12:29:37;0.20;;;0.20;;
13552;SDS011;6847;48.830;9.116;2023-08-12T12:32:26;0.10;;;0.10;;
13552;SDS011;6847;48.830;9.116;2023-08-12T12:35:16;0.10;;;0.10;;
13552;SDS011;6847;48.830;9.116;2023-08-12T12:38:02;0.10;;;0.10;;
13552;SDS011;6847;48.830;9.116;2023-08-12T12:40:50;0.10;;;0.10;;
13552;SDS011;6847;48.830;9.116;2023-08-12T12:43:41;0.10;;;0.10;;
13552;SDS011;6847;48.830;9.116;2023-08-12T12:46:31;0.10;;;0.10;;
13552;SDS011;6847;48.830;9.116;2023-08-12T12:49:16;0.10;;;0.10;;
13552;SDS011;6847;48.830;9.116;2023-08-12T12:52:02;0.10;;;0.10;;
13552;SDS011;6847;48.830;9.116;2023-08-12T12:54:54;0.10;;;0.10;;
13552;SDS011;6847;48.830;9.116;2023-08-12T12:57:56;0.13;;;0.13;;
13552;SDS011;6847;48.830;9.116;2023-08-12T13:00:52;0.10;;;0.10;;
13552;SDS011;6847;48.830;9.116;2023-08-12T13:03:41;0.13;;;0.13;;
13552;SDS011;6847;48.830;9.116;2023-08-12T13:06:31;0.10;;;0.10;;
13552;SDS011;6847;48.830;9.116;2023-08-12T13:09:19;0.10;;;0.10;;
13552;SDS011;6847;48.830;9.116;2023-08-12T13:12:07;0.10;;;0.10;;
13552;SDS011;6847;48.830;9.116;2023-08-12T13:14:58;0.10;;;0.10;;
13552;SDS011;6847;48.830;9.116;2023-08-12T13:17:48;0.10;;;0.10;;
13552;SDS011;6847;48.830;9.116;2023-08-12T13:20:33;0.10;;;0.10;;
13552;SDS011;6847;48.830;9.116;2023-08-12T13:23:19;0.20;;;0.20;;
13552;SDS011;6847;48.830;9.116;2023-08-12T13:26:04;0.10;;;0.10;;
13552;SDS011;6847;48.830;9.116;2023-08-12T13:28:52;0.13;;;0.13;;
13552;SDS011;6847;48.830;9.116;2023-08-12T13:31:41;0.17;;;0.17;;
13552;SDS011;6847;48.830;9.116;2023-08-12T13:34:31;0.10;;;0.10;;
13552;SDS011;6847;48.830;9.116;2023-08-12T13:37:19;0.30;;;0.30;;
13552;SDS011;6847;48.830;9.116;2023-08-12T13:40:08;0.17;;;0.17;;
13552;SDS011;6847;48.830;9.116;2023-08-12T13:42:58;0.10;;;0.10;;
13552;SDS011;6847;48.830;9.116;2023-08-12T13:45:46;0.10;;;0.10;;
13552;SDS011;6847;48.830;9.116;2023-08-12T13:48:32;0.20;;;0.20;;
13552;SDS011;6847;48.830;9.116;2023-08-12T13:51:26;0.20;;;0.20;;
13552;SDS011;6847;48.830;9.116;2023-08-12T14:02:49;0.20;;;0.20;;
13552;SDS011;6847;48.830;9.116;2023-08-12T14:05:38;0.25;;;0.25;;
13552;SDS011;6847;48.830;9.116;2023-08-12T14:08:56;0.30;;;0.30;;
13552;SDS011;6847;48.830;9.116;2023-08-12T14:12:08;0.20;;;0.20;;
13552;SDS011;6847;48.830;9.116;2023-08-12T14:14:55;0.20;;;0.20;;
13552;SDS011;6847;48.830;9.116;2023-08-12T14:17:56;0.30;;;0.30;;
13552;SDS011;6847;48.830;9.116;2023-08-12T14:21:12;0.38;;;0.38;;
13552;SDS011;6847;48.830;9.116;2023-08-12T14:24:05;0.30;;;0.30;;
13552;SDS011;6847;48.830;9.116;2023-08-12T14:26:58;0.20;;;0.20;;
13552;SDS011;6847;48.830;9.116;2023-08-12T14:29:47;0.32;;;0.32;;
13552;SDS011;6847;48.830;9.116;2023-08-12T14:32:44;0.20;;;0.20;;
13552;SDS011;6847;48.830;9.116;2023-08-12T14:35:47;0.30;;;0.30;;
13552;SDS011;6847;48.830;9.116;2023-08-12T14:38:42;0.25;;;0.25;;
13552;SDS011;6847;48.830;9.116;2023-08-12T14:45:08;0.30;;;0.30;;
13552;SDS011;6847;48.830;9.116;2023-08-12T14:48:10;0.75;;;0.75;;
13552;SDS011;6847;48.830;9.116;2023-08-12T14:51:14;0.43;;;0.43;;
13552;SDS011;6847;48.830;9.116;2023-08-12T14:54:05;0.30;;;0.30;;
13552;SDS011;6847;48.830;9.116;2023-08-12T14:56:51;0.40;;;0.40;;
13552;SDS011;6847;48.830;9.116;2023-08-12T14:59:38;0.40;;;0.40;;
13552;SDS011;6847;48.830;9.116;2023-08-12T15:02:26;0.40;;;0.40;;
13552;SDS011;6847;48.830;9.116;2023-08-12T15:05:13;0.35;;;0.35;;
13552;SDS011;6847;48.830;9.116;2023-08-12T15:08:03;0.45;;;0.45;;
13552;SDS011;6847;48.830;9.116;2023-08-12T15:10:49;0.40;;;0.40;;
13552;SDS011;6847;48.830;9.116;2023-08-12T15:13:37;0.32;;;0.32;;
13552;SDS011;6847;48.830;9.116;2023-08-12T15:16:25;0.40;;;0.40;;
13552;SDS011;6847;48.830;9.116;2023-08-12T15:19:20;0.22;;;0.22;;
13552;SDS011;6847;48.830;9.116;2023-08-12T15:22:05;0.20;;;0.20;;
13552;SDS011;6847;48.830;9.116;2023-08-12T15:24:52;0.20;;;0.20;;
13552;SDS011;6847;48.830;9.116;2023-08-12T15:27:38;0.22;;;0.22;;
13552;SDS011;6847;48.830;9.116;2023-08-12T15:30:27;0.20;;;0.20;;
13552;SDS011;6847;48.830;9.116;2023-08-12T15:33:13;0.20;;;0.20;;
13552;SDS011;6847;48.830;9.116;2023-08-12T15:36:04;0.20;;;0.20;;
13552;SDS011;6847;48.830;9.116;2023-08-12T15:38:49;0.20;;;0.20;;
13552;SDS011;6847;48.830;9.116;2023-08-12T15:41:38;0.10;;;0.10;;
13552;SDS011;6847;48.830;9.116;2023-08-12T15:44:27;0.20;;;0.20;;
13552;SDS011;6847;48.830;9.116;2023-08-12T15:47:14;0.20;;;0.20;;
13552;SDS011;6847;48.830;9.116;2023-08-12T15:49:59;0.20;;;0.20;;
13552;SDS011;6847;48.830;9.116;2023-08-12T15:52:48;0.20;;;0.20;;
13552;SDS011;6847;48.830;9.116;2023-08-12T15:55:42;0.17;;;0.17;;
13552;SDS011;6847;48.830;9.116;2023-08-12T15:58:30;0.20;;;0.20;;
13552;SDS011;6847;48.830;9.116;2023-08-12T16:01:17;0.20;;;0.20;;
13552;SDS011;6847;48.830;9.116;2023-08-12T16:04:10;0.22;;;0.22;;
13552;SDS011;6847;48.830;9.116;2023-08-12T16:10:21;0.10;;;0.10;;
13552;SDS011;6847;48.830;9.116;2023-08-12T16:13:06;0.20;;;0.20;;
13552;SDS011;6847;48.830;9.116;2023-08-12T16:15:59;0.13;;;0.13;;
13552;SDS011;6847;48.830;9.116;2023-08-12T16:18:45;0.17;;;0.17;;
13552;SDS011;6847;48.830;9.116;2023-08-12T16:21:38;0.20;;;0.20;;
13552;SDS011;6847;48.830;9.116;2023-08-12T16:24:42;0.10;;;0.10;;
13552;SDS011;6847;48.830;9.116;2023-08-12T16:27:43;0.15;;;0.15;;
13552;SDS011;6847;48.830;9.116;2023-08-12T16:30:32;0.10;;;0.10;;
13552;SDS011;6847;48.830;9.116;2023-08-12T16:33:22;0.15;;;0.15;;
13552;SDS011;6847;48.830;9.116;2023-08-12T16:36:11;0.10;;;0.10;;
13552;SDS011;6847;48.830;9.116;2023-08-12T16:39:03;0.20;;;0.20;;
13552;SDS011;6847;48.830;9.116;2023-08-12T16:46:32;0.13;;;0.13;;
13552;SDS011;6847;48.830;9.116;2023-08-12T16:49:35;0.10;;;0.10;;
13552;SDS011;6847;48.830;9.116;2023-08-12T16:56:17;0.10;;;0.10;;
13552;SDS011;6847;48.830;9.116;2023-08-12T16:59:40;0.10;;;0.10;;
13552;SDS011;6847;48.830;9.116;2023-08-12T17:05:57;0.13;;;0.13;;
13552;SDS011;6847;48.830;9.116;2023-08-12T17:08:45;0.10;;;0.10;;
13552;SDS011;6847;48.830;9.116;2023-08-12T17:11:30;0.10;;;0.10;;
13552;SDS011;6847;48.830;9.116;2023-08-12T17:14:18;0.10;;;0.10;;
13552;SDS011;6847;48.830;9.116;2023-08-12T17:17:03;0.10;;;0.10;;
13552;SDS011;6847;48.830;9.116;2023-08-12T17:26:50;0.10;;;0.10;;
13552;SDS011;6847;48.830;9.116;2023-08-12T17:29:47;0.20;;;0.20;;
13552;SDS011;6847;48.830;9.116;2023-08-12T17:32:32;0.10;;;0.10;;
13552;SDS011;6847;48.830;9.116;2023-08-12T17:35:32;0.20;;;0.20;;
13552;SDS011;6847;48.830;9.116;2023-08-12T17:38:19;0.20;;;0.20;;
13552;SDS011;6847;48.830;9.116;2023-08-12T17:41:15;0.10;;;0.10;;
13552;SDS011;6847;48.830;9.116;2023-08-12T17:44:57;0.13;;;0.13;;
13552;SDS011;6847;48.830;9.116;2023-08-12T17:48:14;0.10;;;0.10;;
13552;SDS011;6847;48.830;9.116;2023-08-12T17:51:02;0.20;;;0.20;;
13552;SDS011;6847;48.830;9.116;2023-08-12T17:54:07;0.10;;;0.10;;
13552;SDS011;6847;48.830;9.116;2023-08-12T17:57:12;0.17;;;0.17;;
13552;SDS011;6847;48.830;9.116;2023-08-12T18:06:42;0.13;;;0.13;;
13552;SDS011;6847;48.830;9.116;2023-08-12T18:09:31;0.10;;;0.10;;
13552;SDS011;6847;48.830;9.116;2023-08-12T18:12:35;0.20;;;0.20;;
13552;SDS011;6847;48.830;9.116;2023-08-12T18:15:53;0.10;;;0.10;;
13552;SDS011;6847;48.830;9.116;2023-08-12T18:18:38;0.10;;;0.10;;
13552;SDS011;6847;48.830;9.116;2023-08-12T18:21:35;0.10;;;0.10;;
13552;SDS011;6847;48.830;9.116;2023-08-12T18:24:36;0.10;;;0.10;;
13552;SDS011;6847;48.830;9.116;2023-08-12T18:27:28;0.10;;;0.10;;
13552;SDS011;6847;48.830;9.116;2023-08-12T18:30:31;0.10;;;0.10;;
13552;SDS011;6847;48.830;9.116;2023-08-12T18:33:33;0.15;;;0.15;;
13552;SDS011;6847;48.830;9.116;2023-08-12T18:37:03;0.10;;;0.10;;
13552;SDS011;6847;48.830;9.116;2023-08-12T18:43:52;0.10;;;0.10;;
13552;SDS011;6847;48.830;9.116;2023-08-12T18:46:49;0.10;;;0.10;;
13552;SDS011;6847;48.830;9.116;2023-08-12T18:49:42;0.15;;;0.15;;
13552;SDS011;6847;48.830;9.116;2023-08-12T18:52:34;0.17;;;0.17;;
13552;SDS011;6847;48.830;9.116;2023-08-12T18:55:36;0.10;;;0.10;;
13552;SDS011;6847;48.830;9.116;2023-08-12T18:58:28;0.10;;;0.10;;
13552;SDS011;6847;48.830;9.116;2023-08-12T19:01:14;0.10;;;0.10;;
13552;SDS011;6847;48.830;9.116;2023-08-12T19:04:13;0.10;;;0.10;;
13552;SDS011;6847;48.830;9.116;2023-08-12T19:07:04;0.10;;;0.10;;
13552;SDS011;6847;48.830;9.116;2023-08-12T19:09:51;0.10;;;0.10;;
13552;SDS011;6847;48.830;9.116;2023-08-12T19:12:36;0.10;;;0.10;;
13552;SDS011;6847;48.830;9.116;2023-08-12T19:15:24;0.10;;;0.10;;
13552;SDS011;6847;48.830;9.116;2023-08-12T19:18:12;0.10;;;0.10;;
13552;SDS011;6847;48.830;9.116;2023-08-12T19:21:03;0.10;;;0.10;;
13552;SDS011;6847;48.830;9.116;2023-08-12T19:23:51;0.10;;;0.10;;
13552;SDS011;6847;48.830;9.116;2023-08-12T19:26:37;0.10;;;0.10;;
13552;SDS011;6847;48.830;9.116;2023-08-12T19:29:30;0.10;;;0.10;;
13552;SDS011;6847;48.830;9.116;2023-08-12T19:32:17;0.10;;;0.10;;
13552;SDS011;6847;48.830;9.116;2023-08-12T19:35:04;0.10;;;0.10;;
13552;SDS011;6847;48.830;9.116;2023-08-12T19:37:50;0.10;;;0.10;;
13552;SDS011;6847;48.830;9.116;2023-08-12T19:40:40;0.10;;;0.10;;
13552;SDS011;6847;48.830;9.116;2023-08-12T19:43:30;0.10;;;0.10;;
13552;SDS011;6847;48.830;9.116;2023-08-12T19:46:21;0.10;;;0.10;;
13552;SDS011;6847;48.830;9.116;2023-08-12T19:49:16;0.10;;;0.10;;
13552;SDS011;6847;48.830;9.116;2023-08-12T19:52:19;0.10;;;0.10;;
13552;SDS011;6847;48.830;9.116;2023-08-12T19:55:48;0.10;;;0.10;;
13552;SDS011;6847;48.830;9.116;2023-08-12T19:58:45;0.10;;;0.10;;
13552;SDS011;6847;48.830;9.116;2023-08-12T20:01:34;0.10;;;0.10;;
13552;SDS011;6847;48.830;9.116;2023-08-12T20:04:26;0.10;;;0.10;;
13552;SDS011;6847;48.830;9.116;2023-08-12T20:07:16;0.10;;;0.10;;
13552;SDS011;6847;48.830;9.116;2023-08-12T20:10:05;0.10;;;0.10;;
13552;SDS011;6847;48.830;9.116;2023-08-12T20:13:02;0.10;;;0.10;;
13552;SDS011;6847;48.830;9.116;2023-08-12T20:16:12;0.10;;;0.10;;
13552;SDS011;6847;48.830;9.116;2023-08-12T20:19:15;0.10;;;0.10;;
13552;SDS011;6847;48.830;9.116;2023-08-12T20:22:02;0.10;;;0.10;;
13552;SDS011;6847;48.830;9.116;2023-08-12T20:24:52;0.10;;;0.10;;
13552;SDS011;6847;48.830;9.116;2023-08-12T20:27:53;0.10;;;0.10;;
13552;SDS011;6847;48.830;9.116;2023-08-12T20:30:41;0.10;;;0.10;;